Station History

Weather Underground - logo

Station Historical Data
Daily Summary for October 21, 2017 Units:  English    Metric   Both
« Previous Day
Next Day »
Daily Weekly Monthly Yearly Custom
  High: Low: Average:
Temperature: 69.1 °F 42.9 °F 55 °F
Dew Point: 50.6 °F 41.0 °F 46.8 °F
Humidity: 94 % 47 % 76 %
Wind Speed: 5.0 mph 0.0 mph 0.8 mph
Wind Gust: 5.0 mph - -
Wind:- - SSE
Pressure: 30.30 in 30.10 in -
Precipitation: 0.00 in    
Historical Graphs
 
 
Tabular Data for October 21, 2017
Time Temperature Dew Point Pressure Wind Wind Speed Wind Gust Humidity Rainfall Rate (Hourly)
00:01 49.5 °F 44.9 °F 30.10 in Calm     84 % 0.00 in
00:06 49.1 °F 44.8 °F 30.10 in Calm     85 % 0.00 in
00:11 48.7 °F 44.4 °F 30.11 in Calm     85 % 0.00 in
00:16 48.6 °F 44.6 °F 30.11 in Calm     86 % 0.00 in
00:17 48.6 °F 44.6 °F 30.11 in Calm     86 % 0.00 in
00:22 48.4 °F 44.4 °F 30.11 in Calm     86 % 0.00 in
00:27 48.4 °F 44.4 °F 30.12 in Calm     86 % 0.00 in
00:32 48.3 °F 44.6 °F 30.12 in Calm     87 % 0.00 in
00:37 48.3 °F 44.3 °F 30.12 in Calm     86 % 0.00 in
00:42 48.2 °F 44.5 °F 30.12 in Calm     87 % 0.00 in
00:47 48.1 °F 44.4 °F 30.12 in Calm     87 % 0.00 in
00:52 48.4 °F 44.7 °F 30.13 in SW 1.0 mph 1.0 mph 87 % 0.00 in
00:57 48.5 °F 44.5 °F 30.13 in Calm     86 % 0.00 in
01:02 48.5 °F 44.5 °F 30.13 in Calm     86 % 0.00 in
01:07 48.3 °F 44.3 °F 30.13 in Calm     86 % 0.00 in
01:12 48.2 °F 44.5 °F 30.13 in Calm     87 % 0.00 in
01:17 48.1 °F 44.7 °F 30.14 in West 1.2 mph   88 % 0.00 in
01:22 47.9 °F 44.2 °F 30.13 in Calm     87 % 0.00 in
01:27 47.8 °F 44.1 °F 30.14 in Calm     87 % 0.00 in
01:32 47.7 °F 44.3 °F 30.13 in Calm     88 % 0.00 in
01:37 47.5 °F 44.1 °F 30.14 in NE 1.2 mph   88 % 0.00 in
01:43 47.4 °F 44.0 °F 30.13 in Calm     88 % 0.00 in
01:48 47.3 °F 43.9 °F 30.14 in Calm     88 % 0.00 in
01:53 47.1 °F 43.7 °F 30.14 in Calm     88 % 0.00 in
01:58 46.9 °F 43.5 °F 30.13 in Calm     88 % 0.00 in
02:03 46.7 °F 43.6 °F 30.13 in Calm     89 % 0.00 in
02:08 46.6 °F 43.5 °F 30.13 in NE 1.0 mph 1.0 mph 89 % 0.00 in
02:13 46.8 °F 44.0 °F 30.12 in Calm     90 % 0.00 in
02:18 47.0 °F 44.2 °F 30.12 in Calm     90 % 0.00 in
02:23 47.1 °F 44.0 °F 30.12 in Calm     89 % 0.00 in
02:28 47.3 °F 44.2 °F 30.12 in Calm     89 % 0.00 in
02:33 47.5 °F 44.4 °F 30.13 in Calm     89 % 0.00 in
02:38 47.4 °F 44.3 °F 30.12 in Calm     89 % 0.00 in
02:43 47.3 °F 44.2 °F 30.13 in Calm     89 % 0.00 in
02:48 47.1 °F 44.0 °F 30.13 in Calm     89 % 0.00 in
02:53 47.0 °F 43.9 °F 30.13 in Calm     89 % 0.00 in
02:58 46.8 °F 44.0 °F 30.13 in Calm     90 % 0.00 in
03:03 46.7 °F 43.9 °F 30.13 in Calm     90 % 0.00 in
03:08 46.7 °F 43.9 °F 30.13 in Calm     90 % 0.00 in
03:13 46.7 °F 44.2 °F 30.13 in Calm     91 % 0.00 in
03:18 46.4 °F 43.6 °F 30.13 in Calm     90 % 0.00 in
03:23 46.2 °F 43.4 °F 30.13 in Calm     90 % 0.00 in
03:28 45.9 °F 43.1 °F 30.13 in Calm     90 % 0.00 in
03:33 45.6 °F 42.8 °F 30.13 in Calm     90 % 0.00 in
03:38 45.4 °F 42.9 °F 30.13 in NE 1.2 mph   91 % 0.00 in
03:43 45.2 °F 42.4 °F 30.13 in Calm     90 % 0.00 in
03:44 45.1 °F 42.3 °F 30.13 in Calm     90 % 0.00 in
03:49 44.9 °F 42.4 °F 30.13 in Calm     91 % 0.00 in
03:54 44.8 °F 42.3 °F 30.13 in Calm     91 % 0.00 in
03:59 44.8 °F 42.3 °F 30.13 in Calm     91 % 0.00 in
04:04 44.7 °F 42.2 °F 30.14 in Calm     91 % 0.00 in
04:09 44.6 °F 42.4 °F 30.14 in Calm     92 % 0.00 in
04:14 44.5 °F 42.3 °F 30.14 in Calm     92 % 0.00 in
04:19 44.4 °F 42.2 °F 30.15 in Calm     92 % 0.00 in
04:24 44.3 °F 42.1 °F 30.15 in Calm     92 % 0.00 in
04:30 44.3 °F 42.1 °F 30.15 in NE 1.0 mph   92 % 0.00 in
04:35 44.2 °F 42.0 °F 30.15 in Calm     92 % 0.00 in
04:40 44.1 °F 41.9 °F 30.15 in NE 1.2 mph 1.2 mph 92 % 0.00 in
04:45 44.1 °F 41.9 °F 30.15 in Calm     92 % 0.00 in
04:50 44.1 °F 42.2 °F 30.15 in Calm     93 % 0.00 in
04:55 44.2 °F 42.0 °F 30.16 in NE 1.2 mph   92 % 0.00 in
05:00 44.0 °F 41.8 °F 30.16 in Calm     92 % 0.00 in
05:05 44.0 °F 41.8 °F 30.16 in NE 1.0 mph   92 % 0.00 in
05:10 44.0 °F 42.1 °F 30.16 in Calm     93 % 0.00 in
05:15 43.9 °F 42.0 °F 30.17 in NE 1.2 mph   93 % 0.00 in
05:20 43.8 °F 41.9 °F 30.17 in Calm     93 % 0.00 in
05:25 43.7 °F 41.8 °F 30.17 in Calm     93 % 0.00 in
05:30 43.6 °F 41.7 °F 30.17 in NE 1.2 mph   93 % 0.00 in
05:35 43.6 °F 41.7 °F 30.17 in Calm   0.1 mph 93 % 0.00 in
05:40 43.7 °F 41.8 °F 30.17 in NE 1.0 mph 1.0 mph 93 % 0.00 in
05:45 43.6 °F 41.7 °F 30.17 in Calm     93 % 0.00 in
05:50 43.5 °F 41.6 °F 30.18 in Calm     93 % 0.00 in
05:55 43.5 °F 41.6 °F 30.18 in Calm     93 % 0.00 in
06:00 43.5 °F 41.6 °F 30.18 in Calm     93 % 0.00 in
06:05 43.4 °F 41.5 °F 30.18 in Calm     93 % 0.00 in
06:10 43.3 °F 41.4 °F 30.18 in Calm     93 % 0.00 in
06:15 43.2 °F 41.3 °F 30.19 in Calm     93 % 0.00 in
06:20 43.1 °F 41.2 °F 30.19 in Calm     93 % 0.00 in
06:25 42.9 °F 41.0 °F 30.19 in Calm     93 % 0.00 in
06:30 42.9 °F 41.0 °F 30.19 in Calm     93 % 0.00 in
06:35 42.9 °F 41.0 °F 30.19 in Calm     93 % 0.00 in
06:40 42.9 °F 41.3 °F 30.19 in Calm     94 % 0.00 in
06:45 42.9 °F 41.3 °F 30.20 in Calm     94 % 0.00 in
06:50 43.0 °F 41.4 °F 30.20 in Calm     94 % 0.00 in
06:55 43.1 °F 41.5 °F 30.20 in Calm     94 % 0.00 in
07:00 43.2 °F 41.6 °F 30.20 in Calm     94 % 0.00 in
07:05 43.4 °F 41.8 °F 30.20 in Calm     94 % 0.00 in
07:10 43.5 °F 41.9 °F 30.21 in Calm     94 % 0.00 in
07:15 43.7 °F 42.1 °F 30.21 in Calm     94 % 0.00 in
07:20 43.9 °F 42.0 °F 30.21 in Calm     93 % 0.00 in
07:30 44.2 °F 42.3 °F 30.20 in Calm     93 % 0.00 in
07:35 44.3 °F 42.4 °F 30.21 in Calm     93 % 0.00 in
07:40 44.5 °F 42.6 °F 30.21 in NE 1.2 mph   93 % 0.00 in
07:45 44.6 °F 42.4 °F 30.22 in Calm     92 % 0.00 in
07:50 44.8 °F 42.6 °F 30.21 in Calm     92 % 0.00 in
07:55 45.1 °F 42.9 °F 30.22 in Calm     92 % 0.00 in
08:00 45.5 °F 43.3 °F 30.22 in Calm     92 % 0.00 in
08:05 45.9 °F 43.7 °F 30.22 in NE 1.2 mph   92 % 0.00 in
08:10 46.4 °F 43.9 °F 30.23 in Calm     91 % 0.00 in
08:15 47.4 °F 44.9 °F 30.23 in Calm     91 % 0.00 in
08:20 48.5 °F 45.7 °F 30.23 in Calm     90 % 0.00 in
08:25 49.6 °F 46.2 °F 30.23 in SE 1.0 mph 1.0 mph 88 % 0.00 in
08:30 50.2 °F 46.5 °F 30.23 in SE 1.2 mph   87 % 0.00 in
08:36 50.8 °F 46.8 °F 30.24 in ENE 2.3 mph 2.3 mph 86 % 0.00 in
08:41 51.3 °F 46.9 °F 30.24 in ESE 1.0 mph   85 % 0.00 in
08:46 51.6 °F 46.9 °F 30.24 in SE 3.5 mph 3.5 mph 84 % 0.00 in
08:51 51.9 °F 47.2 °F 30.24 in SSE 1.2 mph 1.2 mph 84 % 0.00 in
08:56 52.3 °F 47.3 °F 30.25 in East 1.2 mph 1.2 mph 83 % 0.00 in
09:00 53.1 °F 48.1 °F 30.25 in SSE 2.3 mph   83 % 0.00 in
09:05 53.7 °F 48.3 °F 30.25 in South 2.0 mph 2.0 mph 82 % 0.00 in
09:10 54.1 °F 48.4 °F 30.25 in SSW 5.0 mph 5.0 mph 81 % 0.00 in
09:16 54.2 °F 47.8 °F 30.25 in ENE 3.5 mph 3.5 mph 79 % 0.00 in
09:21 54.5 °F 48.5 °F 30.25 in SSW 1.2 mph 1.2 mph 80 % 0.00 in
09:26 55.1 °F 48.4 °F 30.26 in East 1.2 mph 1.2 mph 78 % 0.00 in
09:31 55.5 °F 48.8 °F 30.25 in SE 1.2 mph   78 % 0.00 in
09:36 55.8 °F 48.7 °F 30.25 in ESE 2.3 mph 2.3 mph 77 % 0.00 in
09:41 56.1 °F 48.6 °F 30.26 in SSW 1.2 mph 1.7 mph 76 % 0.00 in
09:46 56.3 °F 48.8 °F 30.26 in ESE 2.3 mph 2.3 mph 76 % 0.00 in
09:51 56.6 °F 48.8 °F 30.26 in NW 3.5 mph 3.5 mph 75 % 0.00 in
09:56 56.9 °F 49.1 °F 30.26 in East 2.3 mph 2.3 mph 75 % 0.00 in
10:01 57.0 °F 49.2 °F 30.26 in ENE 1.2 mph 1.2 mph 75 % 0.00 in
10:06 57.6 °F 49.4 °F 30.25 in South 2.3 mph 2.3 mph 74 % 0.00 in
10:11 58.0 °F 49.4 °F 30.26 in SSW 4.6 mph 4.6 mph 73 % 0.00 in
10:16 58.2 °F 49.2 °F 30.26 in NW 1.2 mph 1.2 mph 72 % 0.00 in
10:21 58.3 °F 49.3 °F 30.26 in ESE 3.5 mph 3.5 mph 72 % 0.00 in
10:26 58.2 °F 49.2 °F 30.26 in ENE 3.5 mph 3.5 mph 72 % 0.00 in
10:31 58.2 °F 49.2 °F 30.26 in Calm   0.7 mph 72 % 0.00 in
10:36 58.2 °F 49.2 °F 30.26 in Calm     72 % 0.00 in
10:41 59.1 °F 49.3 °F 30.26 in South 3.0 mph 3.0 mph 70 % 0.00 in
10:46 59.5 °F 49.3 °F 30.25 in SE 1.2 mph 1.2 mph 69 % 0.00 in
10:51 59.8 °F 49.2 °F 30.25 in ENE 3.5 mph 3.5 mph 68 % 0.00 in
10:56 59.8 °F 49.2 °F 30.25 in ESE 3.5 mph 3.5 mph 68 % 0.00 in
11:06 60.7 °F 49.7 °F 30.25 in South 3.5 mph 3.5 mph 67 % 0.00 in
11:11 61.1 °F 49.2 °F 30.24 in SSE 3.5 mph 3.5 mph 65 % 0.00 in
11:16 61.2 °F 49.3 °F 30.24 in NE 3.5 mph 3.5 mph 65 % 0.00 in
11:21 61.6 °F 49.7 °F 30.24 in South 3.5 mph 3.5 mph 65 % 0.00 in
11:26 61.6 °F 49.3 °F 30.24 in SE 3.5 mph 3.5 mph 64 % 0.00 in
11:31 61.8 °F 50.3 °F 30.24 in North 1.2 mph 1.2 mph 66 % 0.00 in
11:36 62.1 °F 48.9 °F 30.23 in East 3.5 mph 3.5 mph 62 % 0.00 in
11:41 62.1 °F 48.9 °F 30.23 in SSE 3.5 mph 3.5 mph 62 % 0.00 in
11:46 62.3 °F 49.5 °F 30.23 in SSW 3.5 mph 3.5 mph 63 % 0.00 in
11:51 63.0 °F 49.3 °F 30.22 in South 4.6 mph 4.6 mph 61 % 0.00 in
11:56 63.6 °F 50.3 °F 30.22 in ENE 3.5 mph 3.5 mph 62 % 0.00 in
12:01 64.3 °F 50.1 °F 30.22 in ESE 4.0 mph 4.0 mph 60 % 0.00 in
12:06 64.6 °F 50.4 °F 30.22 in SE 2.3 mph 2.3 mph 60 % 0.00 in
12:12 64.9 °F 49.8 °F 30.22 in SE 2.3 mph 2.3 mph 58 % 0.00 in
12:17 64.9 °F 49.8 °F 30.21 in North 1.2 mph 1.2 mph 58 % 0.00 in
12:22 64.9 °F 49.8 °F 30.21 in ESE 2.3 mph 2.3 mph 58 % 0.00 in
12:27 65.3 °F 50.1 °F 30.21 in SE 2.3 mph 2.3 mph 58 % 0.00 in
12:32 65.3 °F 49.2 °F 30.21 in East 4.6 mph 4.6 mph 56 % 0.00 in
12:37 65.3 °F 49.7 °F 30.21 in Calm     57 % 0.00 in
12:42 65.6 °F 49.0 °F 30.21 in ENE 3.5 mph 3.5 mph 55 % 0.00 in
12:47 65.8 °F 49.7 °F 30.21 in SE 3.5 mph 3.5 mph 56 % 0.00 in
12:52 65.9 °F 48.8 °F 30.21 in North 3.5 mph 3.5 mph 54 % 0.00 in
12:57 66.0 °F 50.3 °F 30.21 in ESE 2.3 mph 2.3 mph 57 % 0.00 in
13:02 66.9 °F 49.7 °F 30.21 in SE 2.3 mph 2.3 mph 54 % 0.00 in
13:07 66.9 °F 50.2 °F 30.21 in SE 2.3 mph 2.3 mph 55 % 0.00 in
13:12 67.0 °F 49.3 °F 30.21 in South 2.0 mph 2.0 mph 53 % 0.00 in
13:17 67.2 °F 49.0 °F 30.20 in West 3.5 mph 3.5 mph 52 % 0.00 in
13:22 66.7 °F 49.0 °F 30.20 in West 3.5 mph 3.5 mph 53 % 0.00 in
13:27 66.5 °F 50.3 °F 30.20 in North 2.3 mph 2.3 mph 56 % 0.00 in
13:32 66.7 °F 48.5 °F 30.20 in North 3.5 mph 3.5 mph 52 % 0.00 in
13:37 66.5 °F 49.3 °F 30.20 in NNW 1.2 mph 1.2 mph 54 % 0.00 in
13:42 66.9 °F 48.7 °F 30.20 in West 1.2 mph   52 % 0.00 in
13:47 67.3 °F 48.5 °F 30.21 in SW 2.0 mph 2.0 mph 51 % 0.00 in
13:52 67.6 °F 49.3 °F 30.20 in SSE 2.3 mph 2.3 mph 52 % 0.00 in
13:57 67.5 °F 47.7 °F 30.20 in NE 3.5 mph 3.5 mph 49 % 0.00 in
14:07 67.8 °F 47.9 °F 30.20 in ESE 2.3 mph 2.3 mph 49 % 0.00 in
14:12 67.4 °F 48.6 °F 30.20 in Calm     51 % 0.00 in
14:17 67.6 °F 48.8 °F 30.20 in ESE 4.6 mph 4.6 mph 51 % 0.00 in
14:22 67.8 °F 49.0 °F 30.20 in East 1.2 mph   51 % 0.00 in
14:27 68.2 °F 48.8 °F 30.20 in NW 2.3 mph 2.3 mph 50 % 0.00 in
14:32 68.5 °F 49.1 °F 30.20 in SSE 1.2 mph 1.2 mph 50 % 0.00 in
14:37 68.5 °F 49.7 °F 30.20 in South 2.3 mph 2.3 mph 51 % 0.00 in
14:42 68.6 °F 48.7 °F 30.20 in SE 1.2 mph 1.2 mph 49 % 0.00 in
14:47 68.3 °F 48.4 °F 30.20 in ESE 1.2 mph   49 % 0.00 in
14:52 68.6 °F 48.7 °F 30.20 in South 3.5 mph 3.5 mph 49 % 0.00 in
14:57 68.8 °F 48.3 °F 30.20 in East 1.2 mph 1.2 mph 48 % 0.00 in
15:02 68.9 °F 48.9 °F 30.19 in SE 3.5 mph 3.5 mph 49 % 0.00 in
15:07 69.1 °F 49.1 °F 30.19 in SSE 1.2 mph 1.2 mph 49 % 0.00 in
15:12 68.9 °F 47.8 °F 30.19 in WNW 1.2 mph   47 % 0.00 in
15:17 68.9 °F 48.4 °F 30.19 in WNW 3.5 mph 3.5 mph 48 % 0.00 in
15:22 68.1 °F 47.7 °F 30.19 in West 2.3 mph   48 % 0.00 in
15:27 68.1 °F 47.7 °F 30.19 in ESE 1.2 mph   48 % 0.00 in
15:32 68.4 °F 48.5 °F 30.19 in Calm   0.1 mph 49 % 0.00 in
15:37 68.8 °F 48.3 °F 30.19 in Calm     48 % 0.00 in
15:42 69.1 °F 48.6 °F 30.19 in Calm     48 % 0.00 in
15:48 68.9 °F 48.9 °F 30.19 in Calm     49 % 0.00 in
15:53 68.6 °F 48.1 °F 30.19 in NNW 1.2 mph   48 % 0.00 in
15:58 68.2 °F 47.8 °F 30.19 in NW 2.3 mph 2.3 mph 48 % 0.00 in
16:03 67.7 °F 47.8 °F 30.19 in North 1.2 mph 1.2 mph 49 % 0.00 in
16:08 67.1 °F 47.8 °F 30.19 in NW 2.3 mph 2.3 mph 50 % 0.00 in
16:13 66.9 °F 48.2 °F 30.19 in Calm     51 % 0.00 in
16:18 66.9 °F 48.2 °F 30.19 in SW 1.2 mph   51 % 0.00 in
16:23 66.8 °F 47.6 °F 30.19 in Calm     50 % 0.00 in
16:28 66.8 °F 48.6 °F 30.19 in WNW 1.2 mph 1.2 mph 52 % 0.00 in
16:33 66.8 °F 48.1 °F 30.19 in Calm     51 % 0.00 in
16:38 66.7 °F 48.5 °F 30.19 in Calm     52 % 0.00 in
16:43 66.6 °F 47.9 °F 30.19 in Calm     51 % 0.00 in
16:48 66.5 °F 48.3 °F 30.19 in West 1.2 mph   52 % 0.00 in
16:53 66.4 °F 47.7 °F 30.19 in Calm     51 % 0.00 in
16:58 66.3 °F 48.1 °F 30.19 in ESE 1.2 mph   52 % 0.00 in
17:03 66.3 °F 48.7 °F 30.20 in ESE 1.2 mph 1.2 mph 53 % 0.00 in
17:08 66.3 °F 47.6 °F 30.20 in Calm     51 % 0.00 in
17:13 66.1 °F 47.4 °F 30.20 in Calm     51 % 0.00 in
17:18 65.9 °F 47.8 °F 30.20 in Calm     52 % 0.00 in
17:23 65.8 °F 47.7 °F 30.20 in SE 1.2 mph   52 % 0.00 in
17:28 65.6 °F 48.0 °F 30.20 in SE 1.2 mph   53 % 0.00 in
17:33 65.5 °F 48.4 °F 30.20 in Calm     54 % 0.00 in
17:38 65.3 °F 49.2 °F 30.20 in SE 1.2 mph 1.2 mph 56 % 0.00 in
17:43 65.1 °F 49.5 °F 30.21 in Calm     57 % 0.00 in
17:48 64.7 °F 49.6 °F 30.21 in Calm     58 % 0.00 in
17:53 64.3 °F 49.7 °F 30.21 in Calm     59 % 0.00 in
17:58 63.9 °F 49.7 °F 30.22 in Calm     60 % 0.00 in
18:03 63.5 °F 49.8 °F 30.22 in Calm     61 % 0.00 in
18:08 63.1 °F 49.9 °F 30.22 in Calm     62 % 0.00 in
18:13 62.8 °F 49.6 °F 30.22 in Calm     62 % 0.00 in
18:18 62.3 °F 50.0 °F 30.22 in Calm     64 % 0.00 in
18:23 61.8 °F 50.3 °F 30.22 in Calm     66 % 0.00 in
18:28 61.2 °F 50.6 °F 30.22 in Calm     68 % 0.00 in
18:33 60.7 °F 50.1 °F 30.23 in Calm     68 % 0.00 in
18:38 60.3 °F 50.5 °F 30.23 in Calm     70 % 0.00 in
18:43 60.0 °F 50.2 °F 30.23 in Calm     70 % 0.00 in
18:48 59.7 °F 49.9 °F 30.23 in Calm     70 % 0.00 in
18:53 59.3 °F 50.3 °F 30.23 in Calm     72 % 0.00 in
18:58 59.0 °F 50.4 °F 30.23 in Calm     73 % 0.00 in
19:03 58.7 °F 50.1 °F 30.23 in Calm     73 % 0.00 in
19:08 58.3 °F 50.4 °F 30.24 in Calm     75 % 0.00 in
19:13 58.1 °F 50.6 °F 30.24 in Calm     76 % 0.00 in
19:14 58.1 °F 50.6 °F 30.24 in Calm     76 % 0.00 in
19:19 57.8 °F 50.3 °F 30.24 in Calm     76 % 0.00 in
19:29 57.2 °F 50.1 °F 30.24 in Calm     77 % 0.00 in
19:34 56.9 °F 49.8 °F 30.24 in Calm     77 % 0.00 in
19:39 56.8 °F 49.7 °F 30.24 in Calm     77 % 0.00 in
19:44 56.9 °F 49.8 °F 30.24 in Calm     77 % 0.00 in
19:49 57.2 °F 50.1 °F 30.24 in Calm     77 % 0.00 in
19:54 57.2 °F 49.7 °F 30.24 in Calm     76 % 0.00 in
19:59 57.1 °F 50.3 °F 30.24 in Calm     78 % 0.00 in
20:04 56.8 °F 50.0 °F 30.24 in Calm     78 % 0.00 in
20:09 56.7 °F 49.9 °F 30.25 in Calm     78 % 0.00 in
20:14 56.5 °F 49.7 °F 30.25 in Calm     78 % 0.00 in
20:19 56.3 °F 49.9 °F 30.25 in Calm     79 % 0.00 in
20:20 56.3 °F 49.9 °F 30.25 in Calm     79 % 0.00 in
20:25 56.1 °F 49.7 °F 30.25 in Calm     79 % 0.00 in
20:26 56.0 °F 49.6 °F 30.25 in Calm     79 % 0.00 in
20:31 55.7 °F 49.6 °F 30.25 in Calm     80 % 0.00 in
20:33 55.6 °F 49.5 °F 30.25 in Calm     80 % 0.00 in
20:38 55.4 °F 49.7 °F 30.25 in Calm     81 % 0.00 in
20:48 54.8 °F 49.4 °F 30.25 in Calm     82 % 0.00 in
20:53 54.7 °F 49.6 °F 30.25 in Calm     83 % 0.00 in
20:58 54.7 °F 49.6 °F 30.26 in Calm     83 % 0.00 in
21:03 54.7 °F 49.6 °F 30.26 in Calm     83 % 0.00 in
21:08 54.5 °F 49.4 °F 30.26 in Calm     83 % 0.00 in
21:13 54.1 °F 48.7 °F 30.26 in Calm     82 % 0.00 in
21:18 53.9 °F 48.9 °F 30.27 in Calm     83 % 0.00 in
21:23 53.8 °F 48.8 °F 30.26 in Calm     83 % 0.00 in
21:28 53.6 °F 48.6 °F 30.27 in Calm     83 % 0.00 in
21:33 53.3 °F 48.6 °F 30.27 in Calm     84 % 0.00 in
21:38 53.4 °F 48.7 °F 30.27 in Calm     84 % 0.00 in
21:41 53.4 °F 48.7 °F 30.27 in Calm     84 % 0.00 in
21:47 53.2 °F 48.5 °F 30.27 in Calm     84 % 0.00 in
21:52 53.0 °F 48.3 °F 30.28 in Calm     84 % 0.00 in
21:57 52.6 °F 48.2 °F 30.28 in Calm     85 % 0.00 in
22:02 52.3 °F 48.2 °F 30.28 in Calm     86 % 0.00 in
22:07 52.1 °F 48.0 °F 30.28 in Calm     86 % 0.00 in
22:12 52.0 °F 47.9 °F 30.28 in Calm     86 % 0.00 in
22:17 52.0 °F 47.9 °F 30.28 in Calm     86 % 0.00 in
22:22 51.8 °F 47.7 °F 30.28 in Calm     86 % 0.00 in
22:27 51.7 °F 48.0 °F 30.28 in Calm     87 % 0.00 in
22:32 51.7 °F 48.0 °F 30.28 in Calm     87 % 0.00 in
22:37 51.8 °F 48.1 °F 30.29 in Calm     87 % 0.00 in
22:42 51.7 °F 48.0 °F 30.29 in Calm     87 % 0.00 in
22:47 51.6 °F 48.2 °F 30.29 in Calm     88 % 0.00 in
22:52 51.5 °F 48.1 °F 30.30 in Calm     88 % 0.00 in
22:57 51.3 °F 47.9 °F 30.30 in Calm     88 % 0.00 in
23:02 51.3 °F 47.9 °F 30.30 in Calm     88 % 0.00 in
23:07 51.4 °F 48.0 °F 30.30 in Calm     88 % 0.00 in
23:12 51.6 °F 48.2 °F 30.30 in Calm     88 % 0.00 in
23:17 51.8 °F 48.1 °F 30.30 in Calm     87 % 0.00 in
23:22 51.8 °F 47.7 °F 30.30 in Calm     86 % 0.00 in
23:27 51.8 °F 47.7 °F 30.30 in Calm     86 % 0.00 in
23:32 51.8 °F 47.4 °F 30.30 in Calm     85 % 0.00 in
23:37 51.7 °F 47.3 °F 30.30 in Calm     85 % 0.00 in
23:42 51.1 °F 46.7 °F 30.30 in Calm     85 % 0.00 in
23:47 50.8 °F 46.8 °F 30.30 in Calm     86 % 0.00 in
23:52 50.6 °F 46.9 °F 30.30 in Calm     87 % 0.00 in
23:57 50.5 °F 47.1 °F 30.30 in Calm     88 % 0.00 in
Park Place, Exeter, Tulare County, California, USA
Compliments of Weather Underground - 2.75 mb